createdAt,value
2023-05-16T00:00:06.427Z,13.25
2023-05-16T01:00:04.176Z,18.63
2023-05-16T01:02:47.275Z,13.47
2023-05-16T01:05:43.936Z,13.23
2023-05-16T01:11:40.786Z,18.55
2023-05-16T01:14:27.963Z,14.35
2023-05-16T01:17:34.137Z,14.13
2023-05-16T01:33:13.632Z,15.48
2023-05-16T01:36:08.778Z,15.65
2023-05-16T01:42:10.003Z,15.68
2023-05-16T01:51:31.387Z,12.18
2023-05-16T01:54:31.486Z,13.35
2023-05-16T01:57:09.354Z,11.77
2023-05-16T01:59:56.938Z,15.05
2023-05-16T02:02:45.109Z,12.68
2023-05-16T02:05:45.597Z,17.80
2023-05-16T02:08:28.488Z,24.80
2023-05-16T02:43:47.234Z,15.55
2023-05-16T02:46:40.563Z,12.02
2023-05-16T02:49:31.407Z,11.45
2023-05-16T02:52:26.552Z,12.88
2023-05-16T02:55:23.846Z,19.20
2023-05-16T02:58:13.312Z,20.38
2023-05-16T03:00:53.231Z,14.00
2023-05-16T03:03:34.098Z,13.45
2023-05-16T03:06:16.731Z,11.38
2023-05-16T03:08:52.287Z,12.73
2023-05-16T03:11:33.139Z,17.13
2023-05-16T03:14:10.061Z,11.82
2023-05-16T03:16:48.366Z,16.15
2023-05-16T03:19:27.547Z,19.23
2023-05-16T03:22:02.728Z,15.18
2023-05-16T03:27:58.962Z,14.93
2023-05-16T03:30:46.185Z,15.70
2023-05-16T03:33:34.220Z,12.55
2023-05-16T03:36:13.603Z,14.05
2023-05-16T03:38:54.510Z,9.90
2023-05-16T03:41:51.355Z,9.95
2023-05-16T03:47:40.658Z,11.65
2023-05-16T03:50:41.162Z,10.35
2023-05-16T03:53:25.767Z,17.40
2023-05-16T03:56:01.591Z,10.10
2023-05-16T03:58:39.669Z,18.08
2023-05-16T04:01:22.484Z,13.30
2023-05-16T04:07:20.819Z,20.77
2023-05-16T04:10:00.227Z,17.95
2023-05-16T04:12:50.338Z,15.38
2023-05-16T04:15:36.326Z,14.10
2023-05-16T04:18:19.945Z,17.98
2023-05-16T04:21:16.142Z,19.40
2023-05-16T04:23:59.642Z,37.30
2023-05-16T04:26:36.099Z,34.83
2023-05-16T04:29:12.359Z,32.67
2023-05-16T04:31:51.434Z,21.77
2023-05-16T04:34:29.983Z,23.52
2023-05-16T05:14:29.753Z,13.15
2023-05-16T05:17:07.113Z,11.40
2023-05-16T05:19:44.250Z,11.00
2023-05-16T05:22:21.357Z,10.60
2023-05-16T05:25:01.102Z,13.57
2023-05-16T05:30:24.969Z,15.45
2023-05-16T05:33:13.096Z,9.80
2023-05-16T05:35:49.290Z,10.82
2023-05-16T05:38:28.955Z,13.52
2023-05-16T05:41:12.327Z,13.35
2023-05-16T05:43:49.412Z,12.95
2023-05-16T05:46:41.537Z,11.85
2023-05-16T05:49:25.177Z,10.63
2023-05-16T05:52:03.639Z,10.20
2023-05-16T05:54:39.895Z,10.80
2023-05-16T05:57:25.568Z,10.90
2023-05-16T06:00:05.607Z,8.90
2023-05-16T06:02:45.724Z,9.63
2023-05-16T06:05:27.291Z,10.02
2023-05-16T06:08:09.168Z,9.45
2023-05-16T06:10:44.668Z,13.25
2023-05-16T06:13:21.147Z,10.13
2023-05-16T06:15:57.311Z,9.47
2023-05-16T06:18:33.361Z,9.50
2023-05-16T06:21:15.981Z,14.03
2023-05-16T06:23:54.845Z,11.85
2023-05-16T06:26:30.792Z,10.23
2023-05-16T06:31:52.612Z,10.40
2023-05-16T06:34:38.320Z,13.30
2023-05-16T06:37:17.379Z,9.20
2023-05-16T06:40:23.022Z,14.02
2023-05-16T06:42:59.522Z,9.85
2023-05-16T06:45:45.591Z,9.82
2023-05-16T06:48:23.424Z,9.80
2023-05-16T06:57:53.099Z,9.68
2023-05-16T07:01:13.145Z,10.15
2023-05-16T07:04:17.974Z,12.63
2023-05-16T07:07:20.139Z,10.20
2023-05-16T07:09:58.271Z,12.67
2023-05-16T07:12:51.473Z,10.90
2023-05-16T07:15:31.303Z,10.90
2023-05-16T07:18:09.515Z,13.10
2023-05-16T07:20:46.289Z,10.20
2023-05-16T07:23:23.311Z,12.07
2023-05-16T07:26:02.126Z,11.27
2023-05-16T07:28:46.837Z,9.75
2023-05-16T07:31:23.498Z,11.90
2023-05-16T07:34:04.174Z,9.93
2023-05-16T07:36:41.119Z,9.10
2023-05-16T07:39:17.239Z,10.00
2023-05-16T07:41:53.226Z,9.68
2023-05-16T07:44:36.273Z,9.80
2023-05-16T07:47:15.185Z,9.73
2023-05-16T07:49:53.179Z,9.13
2023-05-16T07:52:31.787Z,9.23
2023-05-16T07:55:12.972Z,10.00
2023-05-16T07:57:48.023Z,11.95
2023-05-16T08:00:30.120Z,8.53
2023-05-16T08:03:09.403Z,9.18
2023-05-16T08:05:49.725Z,8.68
2023-05-16T08:08:31.621Z,10.93
2023-05-16T08:11:09.944Z,8.60
2023-05-16T08:13:48.136Z,9.02
2023-05-16T08:16:27.797Z,9.35
2023-05-16T08:19:03.442Z,9.93
2023-05-16T08:24:16.469Z,7.75
2023-05-16T08:26:56.618Z,8.30
2023-05-16T08:29:33.769Z,9.20
2023-05-16T08:32:15.119Z,8.77
2023-05-16T08:34:53.156Z,8.50
2023-05-16T08:37:31.121Z,7.97
2023-05-16T08:40:08.947Z,9.63
2023-05-16T08:42:46.662Z,10.02
2023-05-16T08:45:22.720Z,14.23
2023-05-16T08:48:03.477Z,6.75
2023-05-16T08:50:39.781Z,10.95
2023-05-16T08:53:17.351Z,11.38
2023-05-16T08:55:53.463Z,10.10
2023-05-16T08:58:30.526Z,10.15
2023-05-16T09:01:09.330Z,8.07
2023-05-16T09:03:51.381Z,8.35
2023-05-16T09:06:28.078Z,10.05
2023-05-16T09:09:09.252Z,7.03
2023-05-16T09:11:48.114Z,9.57
2023-05-16T09:14:24.433Z,7.68
2023-05-16T09:17:12.772Z,8.07
2023-05-16T09:19:53.441Z,6.70
2023-05-16T09:22:30.634Z,5.80
2023-05-16T09:25:12.716Z,6.82
2023-05-16T09:27:52.052Z,7.88
2023-05-16T09:30:28.452Z,9.40
2023-05-16T09:33:05.889Z,9.23
2023-05-16T09:35:50.981Z,8.63
2023-05-16T09:38:27.230Z,7.65
2023-05-16T09:41:03.992Z,7.80
2023-05-16T09:43:44.647Z,7.43
2023-05-16T09:46:24.670Z,10.02
2023-05-16T09:49:01.797Z,8.25
2023-05-16T09:51:40.868Z,9.37
2023-05-16T09:54:19.473Z,7.28
2023-05-16T09:57:09.523Z,7.53
2023-05-16T10:02:42.206Z,8.23
2023-05-16T10:05:20.864Z,13.70
2023-05-16T10:08:00.262Z,9.43
2023-05-16T10:10:40.910Z,7.63
2023-05-16T10:13:17.582Z,7.25
2023-05-16T10:15:53.465Z,8.25
2023-05-16T10:18:33.161Z,8.63
2023-05-16T10:21:11.777Z,9.05
2023-05-16T10:23:54.432Z,8.90
2023-05-16T10:26:33.026Z,10.20
2023-05-16T10:29:08.904Z,10.27
2023-05-16T10:31:48.917Z,10.45
2023-05-16T10:34:26.415Z,16.70
2023-05-16T10:37:02.625Z,11.55
2023-05-16T10:42:56.596Z,9.80
2023-05-16T10:49:00.314Z,9.57
2023-05-16T10:51:42.517Z,10.30
2023-05-16T10:54:43.757Z,12.63
2023-05-16T10:57:54.348Z,10.67
2023-05-16T11:00:54.879Z,12.93
2023-05-16T11:03:51.619Z,12.10
2023-05-16T11:07:02.404Z,12.57
2023-05-16T11:09:57.491Z,13.30
2023-05-16T11:24:38.996Z,20.88
2023-05-16T11:27:38.257Z,15.37
2023-05-16T11:30:25.240Z,17.58
2023-05-16T11:33:11.145Z,16.35
2023-05-16T11:38:45.006Z,13.00
2023-05-16T11:41:29.552Z,11.82
2023-05-16T11:44:09.108Z,13.40
2023-05-16T11:46:58.573Z,14.30
2023-05-16T11:49:51.506Z,14.60
2023-05-16T11:52:38.075Z,16.57
2023-05-16T11:55:32.228Z,15.77
2023-05-16T11:58:20.445Z,17.67
2023-05-16T12:00:57.073Z,15.80
2023-05-16T12:03:34.565Z,19.90
2023-05-16T12:06:34.611Z,15.07
2023-05-16T12:09:12.535Z,14.50
2023-05-16T12:11:56.555Z,14.77
2023-05-16T12:17:23.157Z,19.25
2023-05-16T12:20:06.639Z,20.23
2023-05-16T12:22:47.626Z,19.42
2023-05-16T12:26:04.290Z,20.05
2023-05-16T12:44:21.377Z,15.43
2023-05-16T12:46:59.885Z,15.00
2023-05-16T12:49:45.922Z,16.35
2023-05-16T12:52:21.129Z,14.40
2023-05-16T12:57:57.248Z,15.83
2023-05-16T13:00:39.260Z,18.50
2023-05-16T13:03:22.529Z,15.75
2023-05-16T13:06:02.584Z,20.00
2023-05-16T13:08:40.105Z,17.45
2023-05-16T13:14:10.874Z,18.70
2023-05-16T13:16:49.965Z,21.27
2023-05-16T13:19:29.333Z,17.25
2023-05-16T13:22:11.844Z,19.95
2023-05-16T13:24:47.450Z,19.13
2023-05-16T13:27:26.361Z,17.13
2023-05-16T13:30:03.347Z,18.05
2023-05-16T13:32:44.134Z,18.80
2023-05-16T13:35:22.232Z,18.58
2023-05-16T13:38:01.632Z,20.98
2023-05-16T13:40:46.555Z,18.40
2023-05-16T13:43:20.666Z,20.05
2023-05-16T13:45:56.983Z,28.30
2023-05-16T13:48:40.156Z,27.65
2023-05-16T13:51:20.612Z,30.08
2023-05-16T13:54:00.221Z,26.80
2023-05-16T13:56:39.923Z,25.50
2023-05-16T13:59:32.016Z,31.52
2023-05-16T14:02:15.357Z,26.42
2023-05-16T14:04:56.809Z,25.10
2023-05-16T14:07:36.786Z,27.35
2023-05-16T14:10:17.047Z,31.13
2023-05-16T14:12:55.425Z,26.65
2023-05-16T14:15:30.092Z,28.45
2023-05-16T14:18:08.080Z,31.33
2023-05-16T14:20:48.248Z,29.58
2023-05-16T14:23:25.542Z,32.83
2023-05-16T14:28:36.817Z,33.35
2023-05-16T14:31:15.092Z,33.43
2023-05-16T14:33:49.792Z,38.30
2023-05-16T14:36:32.282Z,41.07
2023-05-16T14:39:17.628Z,32.90
2023-05-16T14:41:59.094Z,33.40
2023-05-16T14:44:39.145Z,34.80
2023-05-16T14:47:24.102Z,32.90
2023-05-16T14:50:00.425Z,31.55
2023-05-16T14:52:47.177Z,28.58
2023-05-16T14:55:25.980Z,27.07
2023-05-16T14:58:05.899Z,29.17
2023-05-16T15:00:41.218Z,29.23
2023-05-16T15:03:19.594Z,29.15
2023-05-16T15:06:00.847Z,34.30
2023-05-16T15:08:43.025Z,30.30
2023-05-16T15:11:18.537Z,31.73
2023-05-16T15:13:58.780Z,34.33
2023-05-16T15:16:35.146Z,30.25
2023-05-16T15:19:12.134Z,28.60
2023-05-16T15:21:53.984Z,29.50
2023-05-16T15:24:37.193Z,32.03
2023-05-16T15:27:23.231Z,28.08
2023-05-16T15:29:58.884Z,29.43
2023-05-16T15:32:35.045Z,25.67
2023-05-16T15:35:13.416Z,27.13
2023-05-16T15:37:49.821Z,31.65
2023-05-16T15:40:32.730Z,36.25
2023-05-16T15:43:10.769Z,33.57
2023-05-16T15:45:50.001Z,30.80
2023-05-16T15:48:29.669Z,28.20
2023-05-16T15:51:07.966Z,28.92
2023-05-16T15:53:47.372Z,27.15
2023-05-16T15:56:27.877Z,26.88
2023-05-16T15:59:12.193Z,26.40
2023-05-16T16:01:49.505Z,28.88
2023-05-16T16:04:32.687Z,26.90
2023-05-16T16:07:10.486Z,26.20
2023-05-16T16:09:49.514Z,25.52
2023-05-16T16:12:29.518Z,24.58
2023-05-16T16:15:09.238Z,23.38
2023-05-16T16:17:49.982Z,28.25
2023-05-16T16:20:35.215Z,27.98
2023-05-16T16:23:12.602Z,30.85
2023-05-16T16:25:51.395Z,38.95
2023-05-16T16:28:33.535Z,60.87
2023-05-16T16:31:10.364Z,31.20
2023-05-16T16:33:45.860Z,27.27
2023-05-16T16:36:24.473Z,26.02
2023-05-16T16:38:59.384Z,26.33
2023-05-16T16:41:36.408Z,25.35
2023-05-16T16:44:18.009Z,24.00
2023-05-16T16:46:52.762Z,26.60
2023-05-16T16:49:32.093Z,27.60
2023-05-16T16:52:09.710Z,27.85
2023-05-16T16:54:47.126Z,29.23
2023-05-16T16:57:24.890Z,33.05
2023-05-16T17:00:06.841Z,32.60
2023-05-16T17:02:44.652Z,32.67
2023-05-16T17:05:21.323Z,30.23
2023-05-16T17:07:58.999Z,41.85
2023-05-16T17:10:34.424Z,42.40
2023-05-16T17:13:12.960Z,36.92
2023-05-16T17:15:54.068Z,36.10
2023-05-16T17:18:28.815Z,35.38
2023-05-16T17:21:05.674Z,52.35
2023-05-16T17:23:44.134Z,71.50
2023-05-16T17:26:23.511Z,36.75
2023-05-16T17:29:01.043Z,36.47
2023-05-16T17:31:40.329Z,30.70
2023-05-16T17:34:16.482Z,33.25
2023-05-16T17:36:52.799Z,32.08
2023-05-16T17:39:31.195Z,28.88
2023-05-16T17:42:07.938Z,25.38
2023-05-16T17:44:47.474Z,26.63
2023-05-16T17:47:30.723Z,28.92
2023-05-16T17:50:09.758Z,31.35
2023-05-16T17:52:53.971Z,28.58
2023-05-16T17:55:30.808Z,27.83
2023-05-16T17:58:10.353Z,28.53
2023-05-16T18:00:49.317Z,28.65
2023-05-16T18:03:31.407Z,28.27
2023-05-16T18:06:08.339Z,28.98
2023-05-16T18:08:52.657Z,26.57
2023-05-16T18:11:31.045Z,27.75
2023-05-16T18:14:15.518Z,36.95
2023-05-16T18:16:54.772Z,37.95
2023-05-16T18:19:39.449Z,38.77
2023-05-16T18:22:25.063Z,35.83
2023-05-16T18:25:21.356Z,29.33
2023-05-16T18:28:06.857Z,40.25
2023-05-16T18:30:41.847Z,31.65
2023-05-16T18:33:24.548Z,36.00
2023-05-16T18:43:19.454Z,37.00
2023-05-16T18:46:03.761Z,39.67
2023-05-16T18:49:00.511Z,41.72
2023-05-16T18:51:45.534Z,43.47
2023-05-16T18:54:34.500Z,46.60
2023-05-16T18:57:25.060Z,43.80
2023-05-16T19:00:03.542Z,34.33
2023-05-16T19:02:53.688Z,38.30
2023-05-16T19:05:38.976Z,40.95
2023-05-16T19:08:52.063Z,40.15
2023-05-16T19:11:30.456Z,44.25
2023-05-16T19:14:10.311Z,46.75
2023-05-16T19:16:47.820Z,42.27
2023-05-16T19:22:32.166Z,41.40
2023-05-16T19:25:20.632Z,36.55
2023-05-16T19:28:12.601Z,36.45
2023-05-16T19:33:48.116Z,35.58
2023-05-16T19:36:27.536Z,36.90
2023-05-16T19:39:19.388Z,37.55
2023-05-16T19:42:11.375Z,35.17
2023-05-16T19:44:47.559Z,33.30
2023-05-16T19:47:36.410Z,34.35
2023-05-16T19:50:11.214Z,36.38
2023-05-16T19:52:50.229Z,39.25
2023-05-16T19:55:35.769Z,38.60
2023-05-16T19:58:29.836Z,37.53
2023-05-16T20:01:18.051Z,35.00
2023-05-16T20:04:01.963Z,41.45
2023-05-16T20:06:51.957Z,40.80
2023-05-16T20:12:35.583Z,36.45
2023-05-16T20:15:27.266Z,33.50
2023-05-16T20:18:07.862Z,27.83
2023-05-16T20:20:51.319Z,24.77
2023-05-16T20:30:01.355Z,29.23
2023-05-16T20:33:09.865Z,23.48
2023-05-16T20:36:03.941Z,23.08
2023-05-16T20:38:46.904Z,26.75
2023-05-16T20:41:26.914Z,27.67
2023-05-16T20:44:08.307Z,25.00
2023-05-16T20:46:48.385Z,27.70
2023-05-16T20:49:29.263Z,27.27
2023-05-16T20:52:16.798Z,27.10
2023-05-16T20:55:08.345Z,27.90
2023-05-16T20:57:44.550Z,28.00
2023-05-16T21:00:21.417Z,29.63
2023-05-16T21:03:01.677Z,29.80
2023-05-16T21:05:37.307Z,30.80
2023-05-16T21:08:18.597Z,28.20
2023-05-16T21:11:04.139Z,27.38
2023-05-16T21:13:41.414Z,28.05
2023-05-16T21:16:18.445Z,27.07
2023-05-16T21:18:58.863Z,34.30
2023-05-16T21:21:39.628Z,27.85
2023-05-16T21:24:17.450Z,31.40
2023-05-16T21:26:56.557Z,31.50
2023-05-16T21:29:34.509Z,29.50
2023-05-16T21:32:10.562Z,27.85
2023-05-16T21:34:51.119Z,27.98
2023-05-16T21:37:30.572Z,33.38
2023-05-16T21:40:09.662Z,28.10
2023-05-16T21:42:54.124Z,28.98
2023-05-16T21:45:32.218Z,29.60
2023-05-16T21:48:09.786Z,25.75
2023-05-16T21:50:45.809Z,32.60
2023-05-16T21:56:00.096Z,29.40
2023-05-16T21:58:42.904Z,28.10
2023-05-16T22:01:26.155Z,36.00
2023-05-16T22:04:01.270Z,31.08
2023-05-16T22:06:38.664Z,30.40
2023-05-16T22:09:15.923Z,34.05
2023-05-16T22:11:53.653Z,28.57
2023-05-16T22:14:33.246Z,31.85
2023-05-16T22:17:12.165Z,29.52
2023-05-16T22:19:50.249Z,28.65
2023-05-16T22:22:30.620Z,28.77
2023-05-16T22:25:11.745Z,28.98
2023-05-16T22:28:30.505Z,28.75
2023-05-16T22:31:53.539Z,30.02
2023-05-16T22:41:02.319Z,30.65
2023-05-16T22:43:36.655Z,36.60
2023-05-16T22:46:12.858Z,26.85
2023-05-16T22:48:56.962Z,30.92
2023-05-16T22:51:39.297Z,33.65
2023-05-16T22:54:20.401Z,26.73
2023-05-16T22:56:57.097Z,33.00
2023-05-16T22:59:35.018Z,31.25
2023-05-16T23:02:12.649Z,33.63
2023-05-16T23:04:52.468Z,32.00
2023-05-16T23:07:34.968Z,28.13
2023-05-16T23:10:17.234Z,28.60
2023-05-16T23:12:53.006Z,30.40
2023-05-16T23:15:30.513Z,27.75
2023-05-16T23:18:23.347Z,29.67
2023-05-16T23:20:54.681Z,32.30
2023-05-16T23:23:39.070Z,29.30
2023-05-16T23:26:26.097Z,25.55
2023-05-16T23:29:15.594Z,28.27
2023-05-16T23:32:05.494Z,27.13
2023-05-16T23:34:50.701Z,27.67
2023-05-16T23:40:48.225Z,25.90
2023-05-16T23:43:32.326Z,26.10
2023-05-16T23:46:12.973Z,31.85
2023-05-16T23:51:57.662Z,27.85
2023-05-16T23:54:47.757Z,26.30
2023-05-16T23:57:31.281Z,29.48
